sensor_id;sensor_type;location;lat;lon;timestamp;P1;durP1;ratioP1;P2;durP2;ratioP2
40154;SDS011;25875;48.202;16.334;2023-06-26T00:00:28;7.97;;;7.18;;
40154;SDS011;25875;48.202;16.334;2023-06-26T00:02:55;7.93;;;6.60;;
40154;SDS011;25875;48.202;16.334;2023-06-26T00:05:21;10.13;;;5.93;;
40154;SDS011;25875;48.202;16.334;2023-06-26T00:07:48;7.30;;;6.25;;
40154;SDS011;25875;48.202;16.334;2023-06-26T00:10:15;7.20;;;6.15;;
40154;SDS011;25875;48.202;16.334;2023-06-26T00:12:41;7.70;;;6.35;;
40154;SDS011;25875;48.202;16.334;2023-06-26T00:15:10;7.60;;;6.78;;
40154;SDS011;25875;48.202;16.334;2023-06-26T00:17:37;8.40;;;6.18;;
40154;SDS011;25875;48.202;16.334;2023-06-26T00:20:04;6.40;;;5.65;;
40154;SDS011;25875;48.202;16.334;2023-06-26T00:22:32;7.45;;;6.70;;
40154;SDS011;25875;48.202;16.334;2023-06-26T00:24:58;10.93;;;6.07;;
40154;SDS011;25875;48.202;16.334;2023-06-26T00:27:26;7.07;;;6.05;;
40154;SDS011;25875;48.202;16.334;2023-06-26T00:29:52;7.22;;;5.50;;
40154;SDS011;25875;48.202;16.334;2023-06-26T00:32:20;8.30;;;6.00;;
40154;SDS011;25875;48.202;16.334;2023-06-26T00:34:47;7.43;;;5.78;;
40154;SDS011;25875;48.202;16.334;2023-06-26T00:37:13;8.00;;;6.03;;
40154;SDS011;25875;48.202;16.334;2023-06-26T00:39:40;6.55;;;5.88;;
40154;SDS011;25875;48.202;16.334;2023-06-26T00:42:07;7.05;;;6.07;;
40154;SDS011;25875;48.202;16.334;2023-06-26T00:44:34;7.97;;;5.82;;
40154;SDS011;25875;48.202;16.334;2023-06-26T00:47:00;7.88;;;5.63;;
40154;SDS011;25875;48.202;16.334;2023-06-26T00:49:28;8.20;;;5.40;;
40154;SDS011;25875;48.202;16.334;2023-06-26T00:51:55;6.60;;;5.88;;
40154;SDS011;25875;48.202;16.334;2023-06-26T00:54:22;8.32;;;7.03;;
40154;SDS011;25875;48.202;16.334;2023-06-26T00:56:49;6.13;;;5.53;;
40154;SDS011;25875;48.202;16.334;2023-06-26T00:59:16;7.57;;;5.90;;
40154;SDS011;25875;48.202;16.334;2023-06-26T01:01:43;6.75;;;5.65;;
40154;SDS011;25875;48.202;16.334;2023-06-26T01:04:09;13.80;;;6.32;;
40154;SDS011;25875;48.202;16.334;2023-06-26T01:06:43;6.80;;;6.03;;
40154;SDS011;25875;48.202;16.334;2023-06-26T01:09:14;6.13;;;5.50;;
40154;SDS011;25875;48.202;16.334;2023-06-26T01:11:42;7.28;;;5.97;;
40154;SDS011;25875;48.202;16.334;2023-06-26T01:14:09;8.82;;;6.25;;
40154;SDS011;25875;48.202;16.334;2023-06-26T01:16:36;6.28;;;5.53;;
40154;SDS011;25875;48.202;16.334;2023-06-26T01:19:04;5.90;;;5.30;;
40154;SDS011;25875;48.202;16.334;2023-06-26T01:21:40;7.38;;;5.35;;
40154;SDS011;25875;48.202;16.334;2023-06-26T01:24:12;8.30;;;6.20;;
40154;SDS011;25875;48.202;16.334;2023-06-26T01:26:47;6.53;;;5.88;;
40154;SDS011;25875;48.202;16.334;2023-06-26T01:29:16;6.35;;;4.93;;
40154;SDS011;25875;48.202;16.334;2023-06-26T01:31:44;6.18;;;5.40;;
40154;SDS011;25875;48.202;16.334;2023-06-26T01:34:14;7.65;;;5.40;;
40154;SDS011;25875;48.202;16.334;2023-06-26T01:36:42;5.65;;;5.00;;
40154;SDS011;25875;48.202;16.334;2023-06-26T01:39:08;6.85;;;5.32;;
40154;SDS011;25875;48.202;16.334;2023-06-26T01:41:35;6.40;;;5.65;;
40154;SDS011;25875;48.202;16.334;2023-06-26T01:44:07;6.68;;;5.93;;
40154;SDS011;25875;48.202;16.334;2023-06-26T01:46:46;6.15;;;5.55;;
40154;SDS011;25875;48.202;16.334;2023-06-26T01:49:30;6.88;;;6.07;;
40154;SDS011;25875;48.202;16.334;2023-06-26T01:52:07;7.10;;;5.88;;
40154;SDS011;25875;48.202;16.334;2023-06-26T01:54:42;6.90;;;5.72;;
40154;SDS011;25875;48.202;16.334;2023-06-26T01:57:15;7.95;;;5.63;;
40154;SDS011;25875;48.202;16.334;2023-06-26T01:59:46;7.65;;;5.97;;
40154;SDS011;25875;48.202;16.334;2023-06-26T02:02:13;6.50;;;5.80;;
40154;SDS011;25875;48.202;16.334;2023-06-26T02:04:40;7.07;;;6.30;;
40154;SDS011;25875;48.202;16.334;2023-06-26T02:07:07;7.75;;;6.25;;
40154;SDS011;25875;48.202;16.334;2023-06-26T02:09:35;7.22;;;5.47;;
40154;SDS011;25875;48.202;16.334;2023-06-26T02:12:02;6.13;;;5.28;;
40154;SDS011;25875;48.202;16.334;2023-06-26T02:14:28;8.10;;;5.65;;
40154;SDS011;25875;48.202;16.334;2023-06-26T02:16:56;6.18;;;5.57;;
40154;SDS011;25875;48.202;16.334;2023-06-26T02:19:23;6.88;;;5.53;;
40154;SDS011;25875;48.202;16.334;2023-06-26T02:21:50;6.90;;;5.88;;
40154;SDS011;25875;48.202;16.334;2023-06-26T02:24:16;6.38;;;5.25;;
40154;SDS011;25875;48.202;16.334;2023-06-26T02:26:43;7.40;;;6.03;;
40154;SDS011;25875;48.202;16.334;2023-06-26T02:29:10;6.82;;;6.13;;
40154;SDS011;25875;48.202;16.334;2023-06-26T02:31:37;6.63;;;5.80;;
40154;SDS011;25875;48.202;16.334;2023-06-26T02:34:05;8.85;;;5.97;;
40154;SDS011;25875;48.202;16.334;2023-06-26T02:36:32;5.72;;;5.13;;
40154;SDS011;25875;48.202;16.334;2023-06-26T02:38:59;6.22;;;5.20;;
40154;SDS011;25875;48.202;16.334;2023-06-26T02:41:26;7.95;;;6.22;;
40154;SDS011;25875;48.202;16.334;2023-06-26T02:43:52;7.20;;;5.68;;
40154;SDS011;25875;48.202;16.334;2023-06-26T02:46:19;7.32;;;5.22;;
40154;SDS011;25875;48.202;16.334;2023-06-26T02:48:46;5.68;;;4.97;;
40154;SDS011;25875;48.202;16.334;2023-06-26T02:51:14;7.38;;;4.97;;
40154;SDS011;25875;48.202;16.334;2023-06-26T02:53:40;7.68;;;5.25;;
40154;SDS011;25875;48.202;16.334;2023-06-26T02:56:07;7.07;;;5.90;;
40154;SDS011;25875;48.202;16.334;2023-06-26T02:58:34;6.70;;;5.38;;
40154;SDS011;25875;48.202;16.334;2023-06-26T03:01:00;5.97;;;5.20;;
40154;SDS011;25875;48.202;16.334;2023-06-26T03:03:27;5.50;;;4.95;;
40154;SDS011;25875;48.202;16.334;2023-06-26T03:05:54;6.03;;;4.80;;
40154;SDS011;25875;48.202;16.334;2023-06-26T03:08:22;6.18;;;5.57;;
40154;SDS011;25875;48.202;16.334;2023-06-26T03:10:48;7.15;;;5.90;;
40154;SDS011;25875;48.202;16.334;2023-06-26T03:13:15;7.55;;;4.95;;
40154;SDS011;25875;48.202;16.334;2023-06-26T03:15:42;6.88;;;5.40;;
40154;SDS011;25875;48.202;16.334;2023-06-26T03:18:08;8.48;;;6.00;;
40154;SDS011;25875;48.202;16.334;2023-06-26T03:20:35;6.40;;;5.38;;
40154;SDS011;25875;48.202;16.334;2023-06-26T03:23:02;8.18;;;4.68;;
40154;SDS011;25875;48.202;16.334;2023-06-26T03:25:30;7.50;;;5.78;;
40154;SDS011;25875;48.202;16.334;2023-06-26T03:27:57;7.35;;;5.43;;
40154;SDS011;25875;48.202;16.334;2023-06-26T03:30:24;8.10;;;5.15;;
40154;SDS011;25875;48.202;16.334;2023-06-26T03:32:50;6.18;;;5.35;;
40154;SDS011;25875;48.202;16.334;2023-06-26T03:35:17;6.78;;;5.47;;
40154;SDS011;25875;48.202;16.334;2023-06-26T03:37:44;6.68;;;5.75;;
40154;SDS011;25875;48.202;16.334;2023-06-26T03:40:10;6.20;;;5.22;;
40154;SDS011;25875;48.202;16.334;2023-06-26T03:42:39;9.05;;;6.63;;
40154;SDS011;25875;48.202;16.334;2023-06-26T03:45:05;8.25;;;5.70;;
40154;SDS011;25875;48.202;16.334;2023-06-26T03:47:32;6.43;;;5.68;;
40154;SDS011;25875;48.202;16.334;2023-06-26T03:49:59;8.40;;;5.63;;
40154;SDS011;25875;48.202;16.334;2023-06-26T03:52:26;7.20;;;5.93;;
40154;SDS011;25875;48.202;16.334;2023-06-26T03:54:55;7.07;;;5.97;;
40154;SDS011;25875;48.202;16.334;2023-06-26T03:57:23;7.05;;;5.57;;
40154;SDS011;25875;48.202;16.334;2023-06-26T03:59:51;7.25;;;5.55;;
40154;SDS011;25875;48.202;16.334;2023-06-26T04:02:18;6.75;;;5.97;;
40154;SDS011;25875;48.202;16.334;2023-06-26T04:04:45;7.45;;;5.57;;
40154;SDS011;25875;48.202;16.334;2023-06-26T04:07:12;7.28;;;5.53;;
40154;SDS011;25875;48.202;16.334;2023-06-26T04:09:38;8.32;;;5.32;;
40154;SDS011;25875;48.202;16.334;2023-06-26T04:12:05;9.10;;;5.22;;
40154;SDS011;25875;48.202;16.334;2023-06-26T04:14:33;9.27;;;5.50;;
40154;SDS011;25875;48.202;16.334;2023-06-26T04:17:01;6.38;;;5.60;;
40154;SDS011;25875;48.202;16.334;2023-06-26T04:19:28;7.28;;;5.57;;
40154;SDS011;25875;48.202;16.334;2023-06-26T04:21:55;6.10;;;5.47;;
40154;SDS011;25875;48.202;16.334;2023-06-26T04:24:22;6.22;;;5.30;;
40154;SDS011;25875;48.202;16.334;2023-06-26T04:26:49;6.72;;;5.40;;
40154;SDS011;25875;48.202;16.334;2023-06-26T04:29:15;6.47;;;5.80;;
40154;SDS011;25875;48.202;16.334;2023-06-26T04:31:42;6.28;;;5.32;;
40154;SDS011;25875;48.202;16.334;2023-06-26T04:34:12;6.20;;;5.60;;
40154;SDS011;25875;48.202;16.334;2023-06-26T04:36:39;8.70;;;5.43;;
40154;SDS011;25875;48.202;16.334;2023-06-26T04:39:06;6.25;;;5.53;;
40154;SDS011;25875;48.202;16.334;2023-06-26T04:41:33;7.40;;;5.35;;
40154;SDS011;25875;48.202;16.334;2023-06-26T04:44:00;6.05;;;5.32;;
40154;SDS011;25875;48.202;16.334;2023-06-26T04:46:26;7.13;;;6.32;;
40154;SDS011;25875;48.202;16.334;2023-06-26T04:48:54;12.77;;;6.85;;
40154;SDS011;25875;48.202;16.334;2023-06-26T04:51:24;8.98;;;6.68;;
40154;SDS011;25875;48.202;16.334;2023-06-26T04:53:52;6.93;;;6.10;;
40154;SDS011;25875;48.202;16.334;2023-06-26T04:56:18;6.75;;;5.80;;
40154;SDS011;25875;48.202;16.334;2023-06-26T04:58:45;8.60;;;6.25;;
40154;SDS011;25875;48.202;16.334;2023-06-26T05:01:12;6.72;;;6.05;;
40154;SDS011;25875;48.202;16.334;2023-06-26T05:03:38;7.60;;;6.80;;
40154;SDS011;25875;48.202;16.334;2023-06-26T05:06:06;6.93;;;6.22;;
40154;SDS011;25875;48.202;16.334;2023-06-26T05:08:34;7.00;;;5.95;;
40154;SDS011;25875;48.202;16.334;2023-06-26T05:11:00;6.95;;;6.25;;
40154;SDS011;25875;48.202;16.334;2023-06-26T05:13:27;8.40;;;7.32;;
40154;SDS011;25875;48.202;16.334;2023-06-26T05:15:54;10.73;;;7.00;;
40154;SDS011;25875;48.202;16.334;2023-06-26T05:18:20;7.97;;;7.03;;
40154;SDS011;25875;48.202;16.334;2023-06-26T05:20:47;7.25;;;6.18;;
40154;SDS011;25875;48.202;16.334;2023-06-26T05:23:14;7.78;;;6.97;;
40154;SDS011;25875;48.202;16.334;2023-06-26T05:25:44;8.98;;;6.68;;
40154;SDS011;25875;48.202;16.334;2023-06-26T05:28:11;7.53;;;6.18;;
40154;SDS011;25875;48.202;16.334;2023-06-26T05:30:40;8.48;;;6.90;;
40154;SDS011;25875;48.202;16.334;2023-06-26T05:33:08;7.65;;;6.20;;
40154;SDS011;25875;48.202;16.334;2023-06-26T05:35:37;7.10;;;6.40;;
40154;SDS011;25875;48.202;16.334;2023-06-26T05:38:05;10.35;;;7.53;;
40154;SDS011;25875;48.202;16.334;2023-06-26T05:40:32;7.90;;;6.80;;
40154;SDS011;25875;48.202;16.334;2023-06-26T05:43:02;9.10;;;6.40;;
40154;SDS011;25875;48.202;16.334;2023-06-26T05:45:29;8.05;;;6.10;;
40154;SDS011;25875;48.202;16.334;2023-06-26T05:47:55;6.90;;;5.85;;
40154;SDS011;25875;48.202;16.334;2023-06-26T05:50:22;7.20;;;6.40;;
40154;SDS011;25875;48.202;16.334;2023-06-26T05:52:50;7.07;;;6.22;;
40154;SDS011;25875;48.202;16.334;2023-06-26T05:55:17;8.70;;;6.95;;
40154;SDS011;25875;48.202;16.334;2023-06-26T05:57:45;7.03;;;6.32;;
40154;SDS011;25875;48.202;16.334;2023-06-26T06:00:14;6.78;;;5.90;;
40154;SDS011;25875;48.202;16.334;2023-06-26T06:02:42;8.48;;;6.45;;
40154;SDS011;25875;48.202;16.334;2023-06-26T06:05:09;7.53;;;6.32;;
40154;SDS011;25875;48.202;16.334;2023-06-26T06:07:36;8.18;;;5.90;;
40154;SDS011;25875;48.202;16.334;2023-06-26T06:10:03;7.47;;;5.15;;
40154;SDS011;25875;48.202;16.334;2023-06-26T06:12:30;5.97;;;4.60;;
40154;SDS011;25875;48.202;16.334;2023-06-26T06:14:56;6.72;;;5.00;;
40154;SDS011;25875;48.202;16.334;2023-06-26T06:17:25;6.00;;;5.20;;
40154;SDS011;25875;48.202;16.334;2023-06-26T06:19:51;6.53;;;5.78;;
40154;SDS011;25875;48.202;16.334;2023-06-26T06:22:18;9.00;;;6.60;;
40154;SDS011;25875;48.202;16.334;2023-06-26T06:24:45;8.13;;;7.32;;
40154;SDS011;25875;48.202;16.334;2023-06-26T06:27:11;6.65;;;5.88;;
40154;SDS011;25875;48.202;16.334;2023-06-26T06:29:38;8.23;;;6.10;;
40154;SDS011;25875;48.202;16.334;2023-06-26T06:32:05;8.45;;;6.35;;
40154;SDS011;25875;48.202;16.334;2023-06-26T06:34:34;5.95;;;5.35;;
40154;SDS011;25875;48.202;16.334;2023-06-26T06:37:01;5.47;;;4.70;;
40154;SDS011;25875;48.202;16.334;2023-06-26T06:39:29;7.63;;;5.57;;
40154;SDS011;25875;48.202;16.334;2023-06-26T06:41:55;5.75;;;5.15;;
40154;SDS011;25875;48.202;16.334;2023-06-26T06:44:22;8.20;;;5.15;;
40154;SDS011;25875;48.202;16.334;2023-06-26T06:46:49;7.97;;;5.20;;
40154;SDS011;25875;48.202;16.334;2023-06-26T06:49:16;6.88;;;5.20;;
40154;SDS011;25875;48.202;16.334;2023-06-26T06:51:44;6.95;;;5.70;;
40154;SDS011;25875;48.202;16.334;2023-06-26T06:54:11;6.70;;;4.97;;
40154;SDS011;25875;48.202;16.334;2023-06-26T06:56:37;7.65;;;5.32;;
40154;SDS011;25875;48.202;16.334;2023-06-26T06:59:04;6.93;;;4.93;;
40154;SDS011;25875;48.202;16.334;2023-06-26T07:01:31;5.60;;;4.93;;
40154;SDS011;25875;48.202;16.334;2023-06-26T07:03:58;8.05;;;5.53;;
40154;SDS011;25875;48.202;16.334;2023-06-26T07:06:25;7.95;;;4.70;;
40154;SDS011;25875;48.202;16.334;2023-06-26T07:08:53;6.47;;;4.78;;
40154;SDS011;25875;48.202;16.334;2023-06-26T07:11:19;5.72;;;4.40;;
40154;SDS011;25875;48.202;16.334;2023-06-26T07:13:46;6.10;;;4.68;;
40154;SDS011;25875;48.202;16.334;2023-06-26T07:16:13;5.38;;;4.75;;
40154;SDS011;25875;48.202;16.334;2023-06-26T07:18:40;5.70;;;4.70;;
40154;SDS011;25875;48.202;16.334;2023-06-26T07:21:07;6.70;;;4.72;;
40154;SDS011;25875;48.202;16.334;2023-06-26T07:23:34;8.15;;;5.07;;
40154;SDS011;25875;48.202;16.334;2023-06-26T07:26:02;6.82;;;4.15;;
40154;SDS011;25875;48.202;16.334;2023-06-26T07:28:29;6.63;;;4.95;;
40154;SDS011;25875;48.202;16.334;2023-06-26T07:30:56;6.07;;;5.15;;
40154;SDS011;25875;48.202;16.334;2023-06-26T07:33:22;7.40;;;4.03;;
40154;SDS011;25875;48.202;16.334;2023-06-26T07:35:49;6.20;;;5.45;;
40154;SDS011;25875;48.202;16.334;2023-06-26T07:38:16;5.80;;;4.45;;
40154;SDS011;25875;48.202;16.334;2023-06-26T07:40:43;6.47;;;4.80;;
40154;SDS011;25875;48.202;16.334;2023-06-26T07:43:11;6.07;;;5.47;;
40154;SDS011;25875;48.202;16.334;2023-06-26T07:45:37;7.15;;;4.68;;
40154;SDS011;25875;48.202;16.334;2023-06-26T07:48:05;6.18;;;4.38;;
40154;SDS011;25875;48.202;16.334;2023-06-26T07:50:32;5.55;;;4.28;;
40154;SDS011;25875;48.202;16.334;2023-06-26T07:52:59;7.80;;;5.53;;
40154;SDS011;25875;48.202;16.334;2023-06-26T07:55:25;6.60;;;4.70;;
40154;SDS011;25875;48.202;16.334;2023-06-26T07:57:52;6.78;;;4.78;;
40154;SDS011;25875;48.202;16.334;2023-06-26T08:00:21;5.32;;;4.80;;
40154;SDS011;25875;48.202;16.334;2023-06-26T08:02:48;5.68;;;4.30;;
40154;SDS011;25875;48.202;16.334;2023-06-26T08:05:15;6.07;;;4.80;;
40154;SDS011;25875;48.202;16.334;2023-06-26T08:07:42;5.55;;;4.03;;
40154;SDS011;25875;48.202;16.334;2023-06-26T08:10:09;5.53;;;4.78;;
40154;SDS011;25875;48.202;16.334;2023-06-26T08:12:36;8.32;;;4.63;;
40154;SDS011;25875;48.202;16.334;2023-06-26T08:15:05;6.95;;;4.85;;
40154;SDS011;25875;48.202;16.334;2023-06-26T08:17:34;6.68;;;4.75;;
40154;SDS011;25875;48.202;16.334;2023-06-26T08:20:02;6.75;;;4.95;;
40154;SDS011;25875;48.202;16.334;2023-06-26T08:22:29;6.35;;;5.60;;
40154;SDS011;25875;48.202;16.334;2023-06-26T08:24:56;7.90;;;5.10;;
40154;SDS011;25875;48.202;16.334;2023-06-26T08:27:23;9.00;;;5.63;;
40154;SDS011;25875;48.202;16.334;2023-06-26T08:29:50;8.57;;;5.60;;
40154;SDS011;25875;48.202;16.334;2023-06-26T08:32:16;5.63;;;4.97;;
40154;SDS011;25875;48.202;16.334;2023-06-26T08:34:44;7.20;;;5.57;;
40154;SDS011;25875;48.202;16.334;2023-06-26T08:37:11;6.15;;;5.50;;
40154;SDS011;25875;48.202;16.334;2023-06-26T08:39:38;7.60;;;5.70;;
40154;SDS011;25875;48.202;16.334;2023-06-26T08:42:04;9.43;;;5.90;;
40154;SDS011;25875;48.202;16.334;2023-06-26T08:44:31;6.68;;;5.40;;
40154;SDS011;25875;48.202;16.334;2023-06-26T08:46:59;6.25;;;5.65;;
40154;SDS011;25875;48.202;16.334;2023-06-26T08:49:28;7.70;;;5.75;;
40154;SDS011;25875;48.202;16.334;2023-06-26T08:52:02;5.65;;;4.82;;
40154;SDS011;25875;48.202;16.334;2023-06-26T08:54:37;7.03;;;5.22;;
40154;SDS011;25875;48.202;16.334;2023-06-26T08:57:11;5.05;;;4.53;;
40154;SDS011;25875;48.202;16.334;2023-06-26T08:59:40;8.35;;;4.75;;
40154;SDS011;25875;48.202;16.334;2023-06-26T09:02:07;8.00;;;6.72;;
40154;SDS011;25875;48.202;16.334;2023-06-26T09:04:34;6.75;;;5.70;;
40154;SDS011;25875;48.202;16.334;2023-06-26T09:07:03;5.95;;;5.13;;
40154;SDS011;25875;48.202;16.334;2023-06-26T09:09:30;5.40;;;4.35;;
40154;SDS011;25875;48.202;16.334;2023-06-26T09:11:57;6.18;;;4.90;;
40154;SDS011;25875;48.202;16.334;2023-06-26T09:14:24;6.03;;;5.30;;
40154;SDS011;25875;48.202;16.334;2023-06-26T09:16:51;6.07;;;5.13;;
40154;SDS011;25875;48.202;16.334;2023-06-26T09:19:18;6.72;;;4.95;;
40154;SDS011;25875;48.202;16.334;2023-06-26T09:21:44;6.07;;;5.45;;
40154;SDS011;25875;48.202;16.334;2023-06-26T09:24:12;6.35;;;5.60;;
40154;SDS011;25875;48.202;16.334;2023-06-26T09:26:39;6.22;;;5.63;;
40154;SDS011;25875;48.202;16.334;2023-06-26T09:29:06;7.55;;;4.88;;
40154;SDS011;25875;48.202;16.334;2023-06-26T09:31:35;6.05;;;5.35;;
40154;SDS011;25875;48.202;16.334;2023-06-26T09:34:03;6.72;;;5.22;;
40154;SDS011;25875;48.202;16.334;2023-06-26T09:36:30;5.90;;;5.00;;
40154;SDS011;25875;48.202;16.334;2023-06-26T09:38:58;5.40;;;4.90;;
40154;SDS011;25875;48.202;16.334;2023-06-26T09:41:27;6.30;;;5.65;;
40154;SDS011;25875;48.202;16.334;2023-06-26T09:43:56;6.43;;;5.25;;
40154;SDS011;25875;48.202;16.334;2023-06-26T09:46:27;6.55;;;5.45;;
40154;SDS011;25875;48.202;16.334;2023-06-26T09:48:58;5.80;;;4.57;;
40154;SDS011;25875;48.202;16.334;2023-06-26T09:51:28;5.85;;;4.82;;
40154;SDS011;25875;48.202;16.334;2023-06-26T09:53:55;8.60;;;5.38;;
40154;SDS011;25875;48.202;16.334;2023-06-26T09:56:22;5.55;;;5.05;;
40154;SDS011;25875;48.202;16.334;2023-06-26T09:58:50;7.47;;;5.30;;
40154;SDS011;25875;48.202;16.334;2023-06-26T10:01:17;7.03;;;5.28;;
40154;SDS011;25875;48.202;16.334;2023-06-26T10:03:44;6.05;;;4.35;;
40154;SDS011;25875;48.202;16.334;2023-06-26T10:06:11;6.32;;;5.05;;
40154;SDS011;25875;48.202;16.334;2023-06-26T10:08:39;6.70;;;4.53;;
40154;SDS011;25875;48.202;16.334;2023-06-26T10:11:06;5.22;;;4.60;;
40154;SDS011;25875;48.202;16.334;2023-06-26T10:13:38;6.82;;;5.57;;
40154;SDS011;25875;48.202;16.334;2023-06-26T10:16:07;5.82;;;4.53;;
40154;SDS011;25875;48.202;16.334;2023-06-26T10:18:36;5.53;;;4.50;;
40154;SDS011;25875;48.202;16.334;2023-06-26T10:21:05;5.75;;;4.60;;
40154;SDS011;25875;48.202;16.334;2023-06-26T10:23:33;5.90;;;4.18;;
40154;SDS011;25875;48.202;16.334;2023-06-26T10:26:01;7.78;;;5.05;;
40154;SDS011;25875;48.202;16.334;2023-06-26T10:28:28;7.10;;;5.13;;
40154;SDS011;25875;48.202;16.334;2023-06-26T10:30:55;9.02;;;6.10;;
40154;SDS011;25875;48.202;16.334;2023-06-26T10:33:24;6.07;;;5.25;;
40154;SDS011;25875;48.202;16.334;2023-06-26T10:35:52;6.68;;;5.90;;
40154;SDS011;25875;48.202;16.334;2023-06-26T10:38:18;7.45;;;6.50;;
40154;SDS011;25875;48.202;16.334;2023-06-26T10:40:46;7.70;;;6.95;;
40154;SDS011;25875;48.202;16.334;2023-06-26T10:43:15;4.75;;;4.22;;
40154;SDS011;25875;48.202;16.334;2023-06-26T10:45:44;6.70;;;6.10;;
40154;SDS011;25875;48.202;16.334;2023-06-26T10:48:14;8.20;;;5.20;;
40154;SDS011;25875;48.202;16.334;2023-06-26T10:50:43;5.55;;;4.80;;
40154;SDS011;25875;48.202;16.334;2023-06-26T10:53:15;6.88;;;5.13;;
40154;SDS011;25875;48.202;16.334;2023-06-26T10:55:50;7.38;;;6.03;;
40154;SDS011;25875;48.202;16.334;2023-06-26T10:58:32;6.95;;;5.47;;
40154;SDS011;25875;48.202;16.334;2023-06-26T11:04:00;6.15;;;4.90;;
40154;SDS011;25875;48.202;16.334;2023-06-26T11:06:31;5.22;;;4.70;;
40154;SDS011;25875;48.202;16.334;2023-06-26T11:09:00;6.72;;;4.70;;
40154;SDS011;25875;48.202;16.334;2023-06-26T11:14:33;6.20;;;5.60;;
40154;SDS011;25875;48.202;16.334;2023-06-26T11:17:02;8.43;;;5.28;;
40154;SDS011;25875;48.202;16.334;2023-06-26T11:19:30;9.57;;;6.20;;
40154;SDS011;25875;48.202;16.334;2023-06-26T11:22:03;8.10;;;5.60;;
40154;SDS011;25875;48.202;16.334;2023-06-26T11:27:01;7.15;;;5.10;;
40154;SDS011;25875;48.202;16.334;2023-06-26T11:29:29;8.10;;;5.30;;
40154;SDS011;25875;48.202;16.334;2023-06-26T11:32:00;7.18;;;5.18;;
40154;SDS011;25875;48.202;16.334;2023-06-26T11:34:32;5.07;;;3.65;;
40154;SDS011;25875;48.202;16.334;2023-06-26T11:37:00;7.70;;;6.00;;
40154;SDS011;25875;48.202;16.334;2023-06-26T11:39:30;8.02;;;6.18;;
40154;SDS011;25875;48.202;16.334;2023-06-26T11:41:56;5.47;;;4.95;;
40154;SDS011;25875;48.202;16.334;2023-06-26T11:44:23;20.60;;;7.40;;
40154;SDS011;25875;48.202;16.334;2023-06-26T11:46:51;8.45;;;6.28;;
40154;SDS011;25875;48.202;16.334;2023-06-26T11:49:20;13.32;;;5.55;;
40154;SDS011;25875;48.202;16.334;2023-06-26T11:51:50;7.40;;;5.65;;
40154;SDS011;25875;48.202;16.334;2023-06-26T11:54:23;5.43;;;4.32;;
40154;SDS011;25875;48.202;16.334;2023-06-26T11:56:55;8.40;;;5.25;;
40154;SDS011;25875;48.202;16.334;2023-06-26T11:59:23;7.30;;;5.13;;
40154;SDS011;25875;48.202;16.334;2023-06-26T12:01:50;11.57;;;9.15;;
40154;SDS011;25875;48.202;16.334;2023-06-26T12:04:18;9.18;;;8.27;;
40154;SDS011;25875;48.202;16.334;2023-06-26T12:06:46;12.48;;;9.00;;
40154;SDS011;25875;48.202;16.334;2023-06-26T12:09:14;8.30;;;5.53;;
40154;SDS011;25875;48.202;16.334;2023-06-26T12:11:43;7.03;;;4.47;;
40154;SDS011;25875;48.202;16.334;2023-06-26T12:14:14;7.13;;;4.50;;
40154;SDS011;25875;48.202;16.334;2023-06-26T12:16:41;4.97;;;3.92;;
40154;SDS011;25875;48.202;16.334;2023-06-26T12:19:08;7.40;;;5.82;;
40154;SDS011;25875;48.202;16.334;2023-06-26T12:21:45;8.48;;;7.40;;
40154;SDS011;25875;48.202;16.334;2023-06-26T12:24:14;9.70;;;6.93;;
40154;SDS011;25875;48.202;16.334;2023-06-26T12:26:42;8.40;;;6.38;;
40154;SDS011;25875;48.202;16.334;2023-06-26T12:29:10;7.38;;;5.38;;
40154;SDS011;25875;48.202;16.334;2023-06-26T12:31:44;5.55;;;4.72;;
40154;SDS011;25875;48.202;16.334;2023-06-26T12:34:14;5.20;;;4.57;;
40154;SDS011;25875;48.202;16.334;2023-06-26T12:36:45;9.77;;;6.25;;
40154;SDS011;25875;48.202;16.334;2023-06-26T12:39:15;27.30;;;7.00;;
40154;SDS011;25875;48.202;16.334;2023-06-26T12:41:46;13.55;;;6.00;;
40154;SDS011;25875;48.202;16.334;2023-06-26T12:44:17;8.45;;;4.80;;
40154;SDS011;25875;48.202;16.334;2023-06-26T12:46:47;9.40;;;6.22;;
40154;SDS011;25875;48.202;16.334;2023-06-26T12:49:15;8.82;;;6.55;;
40154;SDS011;25875;48.202;16.334;2023-06-26T12:51:43;8.55;;;6.22;;
40154;SDS011;25875;48.202;16.334;2023-06-26T12:54:09;6.15;;;4.90;;
40154;SDS011;25875;48.202;16.334;2023-06-26T12:56:36;6.55;;;4.75;;
40154;SDS011;25875;48.202;16.334;2023-06-26T12:59:03;6.88;;;5.78;;
40154;SDS011;25875;48.202;16.334;2023-06-26T13:01:30;6.88;;;4.63;;
40154;SDS011;25875;48.202;16.334;2023-06-26T13:03:58;6.53;;;5.68;;
40154;SDS011;25875;48.202;16.334;2023-06-26T13:06:25;7.78;;;5.60;;
40154;SDS011;25875;48.202;16.334;2023-06-26T13:08:52;7.72;;;5.03;;
40154;SDS011;25875;48.202;16.334;2023-06-26T13:11:18;10.63;;;5.40;;
40154;SDS011;25875;48.202;16.334;2023-06-26T13:13:46;6.22;;;5.35;;
40154;SDS011;25875;48.202;16.334;2023-06-26T13:16:13;7.47;;;5.15;;
40154;SDS011;25875;48.202;16.334;2023-06-26T13:18:41;7.20;;;5.10;;
40154;SDS011;25875;48.202;16.334;2023-06-26T13:21:09;9.93;;;5.38;;
40154;SDS011;25875;48.202;16.334;2023-06-26T13:23:36;7.00;;;5.07;;
40154;SDS011;25875;48.202;16.334;2023-06-26T13:26:02;14.07;;;6.25;;
40154;SDS011;25875;48.202;16.334;2023-06-26T13:28:29;10.43;;;5.68;;
40154;SDS011;25875;48.202;16.334;2023-06-26T13:30:56;6.53;;;5.25;;
40154;SDS011;25875;48.202;16.334;2023-06-26T13:33:23;10.18;;;5.60;;
40154;SDS011;25875;48.202;16.334;2023-06-26T13:35:50;12.27;;;6.50;;
40154;SDS011;25875;48.202;16.334;2023-06-26T13:38:18;13.23;;;6.60;;
40154;SDS011;25875;48.202;16.334;2023-06-26T13:40:45;13.75;;;8.85;;
40154;SDS011;25875;48.202;16.334;2023-06-26T13:43:12;17.05;;;13.07;;
40154;SDS011;25875;48.202;16.334;2023-06-26T13:45:39;41.80;;;31.42;;
40154;SDS011;25875;48.202;16.334;2023-06-26T13:48:06;18.27;;;16.48;;
40154;SDS011;25875;48.202;16.334;2023-06-26T13:50:33;18.45;;;14.07;;
40154;SDS011;25875;48.202;16.334;2023-06-26T13:52:59;12.38;;;9.50;;
40154;SDS011;25875;48.202;16.334;2023-06-26T13:55:29;12.10;;;10.85;;
40154;SDS011;25875;48.202;16.334;2023-06-26T13:57:56;8.13;;;7.32;;
40154;SDS011;25875;48.202;16.334;2023-06-26T14:00:23;5.75;;;5.15;;
40154;SDS011;25875;48.202;16.334;2023-06-26T14:02:50;8.20;;;7.18;;
40154;SDS011;25875;48.202;16.334;2023-06-26T14:05:17;9.10;;;5.93;;
40154;SDS011;25875;48.202;16.334;2023-06-26T14:07:44;7.32;;;5.85;;
40154;SDS011;25875;48.202;16.334;2023-06-26T14:10:11;6.13;;;5.53;;
40154;SDS011;25875;48.202;16.334;2023-06-26T14:12:39;7.97;;;6.60;;
40154;SDS011;25875;48.202;16.334;2023-06-26T14:15:06;7.65;;;6.55;;
40154;SDS011;25875;48.202;16.334;2023-06-26T14:17:34;10.85;;;6.28;;
40154;SDS011;25875;48.202;16.334;2023-06-26T14:20:00;6.55;;;5.65;;
40154;SDS011;25875;48.202;16.334;2023-06-26T14:22:27;7.60;;;5.90;;
40154;SDS011;25875;48.202;16.334;2023-06-26T14:24:54;6.93;;;5.15;;
40154;SDS011;25875;48.202;16.334;2023-06-26T14:27:20;8.38;;;6.15;;
40154;SDS011;25875;48.202;16.334;2023-06-26T14:29:49;6.63;;;5.93;;
40154;SDS011;25875;48.202;16.334;2023-06-26T14:32:15;5.90;;;5.25;;
40154;SDS011;25875;48.202;16.334;2023-06-26T14:34:42;5.88;;;5.05;;
40154;SDS011;25875;48.202;16.334;2023-06-26T14:37:09;5.22;;;4.63;;
40154;SDS011;25875;48.202;16.334;2023-06-26T14:39:35;6.60;;;5.88;;
40154;SDS011;25875;48.202;16.334;2023-06-26T14:42:03;9.05;;;6.13;;
40154;SDS011;25875;48.202;16.334;2023-06-26T14:44:31;9.50;;;6.10;;